createdAt,value
2022-09-05T00:01:27.776Z,53.46
2022-09-05T00:04:24.814Z,53.42
2022-09-05T00:07:05.240Z,53.83
2022-09-05T00:10:00.403Z,53.18
2022-09-05T00:12:32.096Z,53.47
2022-09-05T00:15:20.304Z,53.22
2022-09-05T00:21:48.254Z,53.18
2022-09-05T00:24:19.194Z,53.14
2022-09-05T00:24:50.209Z,53.15
2022-09-05T00:27:30.127Z,53.10
2022-09-05T00:31:50.793Z,52.69
2022-09-05T00:33:27.417Z,52.70
2022-09-05T00:36:32.734Z,52.54
2022-09-05T00:39:05.199Z,52.34
2022-09-05T00:41:34.383Z,52.42
2022-09-05T00:44:04.915Z,52.40
2022-09-05T00:46:36.510Z,52.82
2022-09-05T00:49:18.040Z,53.15
2022-09-05T00:51:54.712Z,53.47
2022-09-05T00:54:47.170Z,53.79
2022-09-05T00:57:45.487Z,54.09
2022-09-05T01:00:19.682Z,54.08
2022-09-05T01:03:17.082Z,54.19
2022-09-05T01:06:19.186Z,54.00
2022-09-05T01:09:18.878Z,53.82
2022-09-05T01:12:01.959Z,53.87
2022-09-05T01:14:50.437Z,53.36
2022-09-05T01:17:36.760Z,53.62
2022-09-05T01:20:18.899Z,53.62
2022-09-05T01:23:08.861Z,53.73
2022-09-05T01:26:03.105Z,53.78
2022-09-05T01:29:16.479Z,53.61
2022-09-05T01:31:39.161Z,53.99
2022-09-05T01:34:21.698Z,54.06
2022-09-05T01:37:29.694Z,53.94
2022-09-05T01:40:15.847Z,54.40
2022-09-05T01:43:02.661Z,54.30
2022-09-05T01:45:49.826Z,54.36
2022-09-05T01:48:35.746Z,54.75
2022-09-05T01:51:29.153Z,54.80
2022-09-05T01:54:24.763Z,54.86
2022-09-05T01:57:09.220Z,54.49
2022-09-05T01:59:49.860Z,54.64
2022-09-05T02:02:25.031Z,54.98
2022-09-05T02:05:47.476Z,54.93
2022-09-05T02:08:49.462Z,55.04
2022-09-05T02:11:35.371Z,55.10
2022-09-05T02:14:12.499Z,55.05
2022-09-05T02:16:56.792Z,55.26
2022-09-05T02:19:31.680Z,55.52
2022-09-05T02:22:10.727Z,55.55
2022-09-05T02:24:43.386Z,55.56
2022-09-05T02:28:04.469Z,55.76
2022-09-05T02:30:20.879Z,55.75
2022-09-05T02:32:59.734Z,55.90
2022-09-05T02:35:40.468Z,56.02
2022-09-05T02:38:56.765Z,56.01
2022-09-05T02:45:01.889Z,56.18
2022-09-05T02:45:17.100Z,56.48
2022-09-05T02:46:59.031Z,57.00
2022-09-05T02:51:17.253Z,57.07
2022-09-05T02:57:38.791Z,57.62
2022-09-05T02:57:43.270Z,57.37
2022-09-05T02:59:06.057Z,57.55
2022-09-05T03:02:03.316Z,57.49
2022-09-05T03:05:00.960Z,57.49
2022-09-05T03:07:58.743Z,58.04
2022-09-05T03:11:12.092Z,58.21
2022-09-05T03:14:43.730Z,58.12
2022-09-05T03:17:57.199Z,57.83
2022-09-05T03:21:26.492Z,58.15
2022-09-05T03:24:48.191Z,57.79
2022-09-05T03:28:26.975Z,58.04
2022-09-05T03:31:22.620Z,58.00
2022-09-05T03:34:39.617Z,57.73
2022-09-05T03:37:49.565Z,58.36
2022-09-05T03:40:44.737Z,58.37
2022-09-05T03:43:47.798Z,58.53
2022-09-05T03:46:32.028Z,58.89
2022-09-05T03:50:40.181Z,58.96
2022-09-05T03:57:14.767Z,59.15
2022-09-05T03:57:23.502Z,59.41
2022-09-05T03:58:57.098Z,59.91
2022-09-05T04:04:00.291Z,60.42
2022-09-05T04:08:10.873Z,60.43
2022-09-05T04:08:13.866Z,60.88
2022-09-05T04:10:28.575Z,61.05
2022-09-05T04:13:04.088Z,61.19
2022-09-05T04:15:40.178Z,61.37
2022-09-05T04:18:25.888Z,61.36
2022-09-05T04:21:07.685Z,61.63
2022-09-05T04:23:49.490Z,61.69
2022-09-05T04:26:46.554Z,61.89
2022-09-05T04:29:25.635Z,61.66
2022-09-05T04:32:12.410Z,61.68
2022-09-05T04:35:05.579Z,62.01
2022-09-05T04:37:48.911Z,62.10
2022-09-05T04:40:38.538Z,62.50
2022-09-05T04:43:11.775Z,62.67
2022-09-05T04:45:47.184Z,62.58
2022-09-05T04:48:21.566Z,62.94
2022-09-05T04:51:22.960Z,63.05
2022-09-05T04:54:16.039Z,63.17
2022-09-05T04:56:47.659Z,63.16
2022-09-05T05:01:34.578Z,62.96
2022-09-05T05:06:01.123Z,63.06
2022-09-05T05:06:17.341Z,63.03
2022-09-05T05:08:38.155Z,63.28
2022-09-05T05:17:56.050Z,63.57
2022-09-05T05:18:01.320Z,63.59
2022-09-05T05:18:07.220Z,63.46
2022-09-05T05:20:40.256Z,63.72
2022-09-05T05:23:07.624Z,63.71
2022-09-05T05:25:49.026Z,63.77
2022-09-05T05:28:26.956Z,63.68
2022-09-05T05:31:01.171Z,63.34
2022-09-05T05:33:36.365Z,63.08
2022-09-05T05:36:10.645Z,62.88
2022-09-05T05:38:47.315Z,62.91
2022-09-05T05:41:24.249Z,62.93
2022-09-05T05:43:53.170Z,62.75
2022-09-05T05:46:38.963Z,62.60
2022-09-05T05:49:34.326Z,62.87
2022-09-05T05:52:40.747Z,63.07
2022-09-05T05:55:51.798Z,63.32
2022-09-05T05:58:44.566Z,63.64
2022-09-05T06:02:08.258Z,63.97
2022-09-05T06:05:18.894Z,63.80
2022-09-05T06:10:00.440Z,63.93
2022-09-05T06:14:55.255Z,64.00
2022-09-05T06:15:13.197Z,63.81
2022-09-05T06:18:21.198Z,64.39
2022-09-05T06:22:10.260Z,64.08
2022-09-05T06:25:21.104Z,63.89
2022-09-05T06:28:19.087Z,64.25
2022-09-05T06:31:19.754Z,63.51
2022-09-05T06:34:27.220Z,61.52
2022-09-05T06:37:07.223Z,60.99
2022-09-05T06:40:04.627Z,61.04
2022-09-05T06:42:46.169Z,60.20
2022-09-05T06:45:32.653Z,59.50
2022-09-05T06:48:13.683Z,59.61
2022-09-05T06:51:16.710Z,59.23
2022-09-05T06:54:03.795Z,59.47
2022-09-05T06:57:19.115Z,59.09
2022-09-05T07:00:21.672Z,59.34
2022-09-05T07:03:18.842Z,58.07
2022-09-05T07:05:56.699Z,57.57
2022-09-05T07:08:34.992Z,57.96
2022-09-05T07:11:15.872Z,58.54
2022-09-05T07:14:01.906Z,57.82
2022-09-05T07:16:43.561Z,58.42
2022-09-05T07:19:26.946Z,58.21
2022-09-05T07:22:48.486Z,57.65
2022-09-05T07:25:21.595Z,56.18
2022-09-05T07:28:28.235Z,55.19
2022-09-05T07:30:52.104Z,56.35
2022-09-05T07:33:22.551Z,54.04
2022-09-05T07:35:52.867Z,56.47
2022-09-05T07:38:26.773Z,55.46
2022-09-05T07:41:24.415Z,55.73
2022-09-05T07:43:59.997Z,57.17
2022-09-05T07:46:33.859Z,58.53
2022-09-05T07:49:07.354Z,57.34
2022-09-05T07:56:46.876Z,56.51
2022-09-05T07:56:55.222Z,55.37
2022-09-05T07:57:31.689Z,53.71
2022-09-05T08:00:23.116Z,53.60
2022-09-05T08:02:59.455Z,53.09
2022-09-05T08:05:37.327Z,52.04
2022-09-05T08:08:11.558Z,50.95
2022-09-05T08:11:22.275Z,51.11
2022-09-05T08:13:52.568Z,50.88
2022-09-05T08:16:25.422Z,49.06
2022-09-05T08:19:07.883Z,49.13
2022-09-05T08:21:42.746Z,49.67
2022-09-05T08:24:20.443Z,49.57
2022-09-05T08:26:52.369Z,50.06
2022-09-05T08:29:31.942Z,50.71
2022-09-05T08:32:08.491Z,51.61
2022-09-05T08:34:45.613Z,52.05
2022-09-05T08:37:20.971Z,53.02
2022-09-05T08:40:07.280Z,51.15
2022-09-05T08:45:22.775Z,50.58
2022-09-05T08:46:44.900Z,49.41
2022-09-05T08:48:56.207Z,47.63
2022-09-05T08:51:41.910Z,47.18
2022-09-05T08:54:33.696Z,47.60
2022-09-05T08:57:13.871Z,47.42
2022-09-05T09:00:19.057Z,46.95
2022-09-05T09:02:55.689Z,45.92
2022-09-05T09:06:16.431Z,46.46
2022-09-05T09:09:14.390Z,47.01
2022-09-05T09:11:51.845Z,46.40
2022-09-05T09:14:50.178Z,45.95
2022-09-05T09:17:35.311Z,46.53
2022-09-05T09:20:26.421Z,47.78
2022-09-05T09:23:03.099Z,47.73
2022-09-05T09:25:42.522Z,48.58
2022-09-05T09:28:52.300Z,46.01
2022-09-05T09:31:38.908Z,45.73
2022-09-05T09:34:49.309Z,45.07
2022-09-05T09:38:02.591Z,44.82
2022-09-05T09:41:33.570Z,44.39
2022-09-05T09:45:22.534Z,43.10
2022-09-05T09:48:37.418Z,43.08
2022-09-05T09:51:40.642Z,42.61
2022-09-05T09:54:57.049Z,42.60
2022-09-05T09:58:12.793Z,43.29
2022-09-05T10:00:51.352Z,42.34
2022-09-05T10:08:22.956Z,42.40
2022-09-05T10:10:52.197Z,42.44
2022-09-05T10:14:57.091Z,43.60
2022-09-05T10:17:43.450Z,43.86
2022-09-05T10:21:16.123Z,43.24
2022-09-05T10:24:33.074Z,43.31
2022-09-05T10:27:26.721Z,43.01
2022-09-05T10:30:09.133Z,43.46
2022-09-05T10:35:08.451Z,44.49
2022-09-05T10:35:50.573Z,44.09
2022-09-05T10:38:26.405Z,42.41
2022-09-05T10:41:20.767Z,43.34
2022-09-05T10:43:51.374Z,42.74
2022-09-05T10:46:50.291Z,42.33
2022-09-05T10:49:27.056Z,42.52
2022-09-05T10:52:04.109Z,43.47
2022-09-05T10:55:14.714Z,42.37
2022-09-05T10:57:59.646Z,43.43
2022-09-05T11:02:28.223Z,41.33
2022-09-05T11:03:55.181Z,42.01
2022-09-05T11:06:45.179Z,40.52
2022-09-05T11:09:37.165Z,41.37
2022-09-05T11:12:22.339Z,42.48
2022-09-05T11:14:53.465Z,41.37
2022-09-05T11:17:32.049Z,40.06
2022-09-05T11:20:35.061Z,41.70
2022-09-05T11:23:10.936Z,39.81
2022-09-05T11:25:41.200Z,40.40
2022-09-05T11:28:17.722Z,39.03
2022-09-05T11:30:53.335Z,38.94
2022-09-05T11:35:17.094Z,40.45
2022-09-05T11:40:06.568Z,39.24
2022-09-05T11:40:51.128Z,38.86
2022-09-05T11:44:02.478Z,39.83
2022-09-05T11:46:52.082Z,39.03
2022-09-05T11:50:10.386Z,39.19
2022-09-05T11:53:18.674Z,38.62
2022-09-05T11:56:32.231Z,39.57
2022-09-05T11:59:46.954Z,38.50
2022-09-05T12:02:34.716Z,39.37
2022-09-05T12:08:36.956Z,37.48
2022-09-05T12:11:21.520Z,36.19
2022-09-05T12:13:57.625Z,36.61
2022-09-05T12:16:56.851Z,36.48
2022-09-05T12:19:35.815Z,36.31
2022-09-05T12:22:29.037Z,37.01
2022-09-05T12:27:35.398Z,37.43
2022-09-05T12:32:19.531Z,35.69
2022-09-05T12:36:12.902Z,35.76
2022-09-05T12:40:56.294Z,36.49
2022-09-05T12:41:33.093Z,36.55
2022-09-05T12:42:09.753Z,36.39
2022-09-05T12:42:10.808Z,38.30
2022-09-05T12:43:42.484Z,36.75
2022-09-05T12:45:59.277Z,35.73
2022-09-05T12:48:39.430Z,35.94
2022-09-05T12:51:11.955Z,36.85
2022-09-05T12:54:04.260Z,36.39
2022-09-05T13:02:20.065Z,36.83
2022-09-05T13:03:02.512Z,36.83
2022-09-05T13:03:13.814Z,36.56
2022-09-05T13:05:47.390Z,36.20
2022-09-05T13:08:21.116Z,36.96
2022-09-05T13:14:49.645Z,36.24
2022-09-05T13:14:53.083Z,36.39
2022-09-05T13:16:46.181Z,37.45
2022-09-05T13:19:37.405Z,38.55
2022-09-05T13:22:08.595Z,36.95
2022-09-05T13:24:41.477Z,37.28
2022-09-05T13:27:15.535Z,37.65
2022-09-05T13:32:36.108Z,37.73
2022-09-05T13:38:03.378Z,37.60
2022-09-05T13:38:08.166Z,38.92
2022-09-05T13:38:58.959Z,38.70
2022-09-05T13:41:31.491Z,38.76
2022-09-05T13:44:25.211Z,38.24
2022-09-05T13:46:58.891Z,38.86
2022-09-05T13:49:35.169Z,38.85
2022-09-05T13:52:28.009Z,39.78
2022-09-05T13:55:17.933Z,38.69
2022-09-05T13:57:51.030Z,39.59
2022-09-05T14:01:12.730Z,40.77
2022-09-05T14:08:33.566Z,41.26
2022-09-05T14:11:36.412Z,40.71
2022-09-05T14:15:08.083Z,40.11
2022-09-05T14:20:37.314Z,40.81
2022-09-05T14:23:13.419Z,41.16
2022-09-05T14:25:44.866Z,41.33
2022-09-05T14:28:22.173Z,41.20
2022-09-05T14:35:20.784Z,41.00
2022-09-05T14:37:40.950Z,41.25
2022-09-05T14:37:49.771Z,40.89
2022-09-05T14:41:26.886Z,42.16
2022-09-05T14:44:22.711Z,41.85
2022-09-05T14:47:35.411Z,42.02
2022-09-05T14:50:29.304Z,43.65
2022-09-05T14:57:02.091Z,44.57
2022-09-05T15:02:51.312Z,43.88
2022-09-05T15:02:57.790Z,44.62
2022-09-05T15:04:56.472Z,43.86
2022-09-05T15:07:29.330Z,42.33
2022-09-05T15:12:14.602Z,42.80
2022-09-05T15:13:17.436Z,44.64
2022-09-05T15:16:02.012Z,43.58
2022-09-05T15:18:33.530Z,44.00
2022-09-05T15:21:30.669Z,42.42
2022-09-05T15:24:21.352Z,42.77
2022-09-05T15:26:53.802Z,41.34
2022-09-05T15:29:27.639Z,43.91
2022-09-05T15:32:14.819Z,44.73
2022-09-05T15:34:43.115Z,44.92
2022-09-05T15:37:25.443Z,44.55
2022-09-05T15:40:23.176Z,44.99
2022-09-05T15:42:55.706Z,45.21
2022-09-05T15:45:29.142Z,46.41
2022-09-05T15:48:12.528Z,47.88
2022-09-05T15:50:50.122Z,48.57
2022-09-05T15:53:26.454Z,48.38
2022-09-05T15:56:00.155Z,48.35
2022-09-05T15:58:35.964Z,47.90
2022-09-05T16:01:45.035Z,46.96
2022-09-05T16:08:26.429Z,47.43
2022-09-05T16:10:48.950Z,45.96
2022-09-05T16:10:49.320Z,47.40
2022-09-05T16:12:53.559Z,45.56
2022-09-05T16:19:06.526Z,44.63
2022-09-05T16:23:27.195Z,45.71
2022-09-05T16:23:35.248Z,46.14
2022-09-05T16:24:06.002Z,46.11
2022-09-05T16:26:41.370Z,45.44
2022-09-05T16:29:26.116Z,46.45
2022-09-05T16:32:16.275Z,50.20
2022-09-05T16:34:55.270Z,50.21
2022-09-05T16:37:31.101Z,49.68
2022-09-05T16:40:08.647Z,51.48
2022-09-05T16:42:47.509Z,52.43
2022-09-05T16:45:31.516Z,54.07
2022-09-05T16:48:16.963Z,55.24
2022-09-05T16:50:53.072Z,56.16
2022-09-05T16:53:33.438Z,57.26
2022-09-05T16:56:07.691Z,57.75
2022-09-05T16:58:41.964Z,58.06
2022-09-05T17:01:28.624Z,59.04
2022-09-05T17:03:59.086Z,59.45
2022-09-05T17:06:45.061Z,59.24
2022-09-05T17:09:24.832Z,58.09
2022-09-05T17:12:01.875Z,57.48
2022-09-05T17:14:36.070Z,57.13
2022-09-05T17:18:18.262Z,57.10
2022-09-05T17:20:14.415Z,56.68
2022-09-05T17:26:21.695Z,57.51
2022-09-05T17:29:28.586Z,58.21
2022-09-05T17:29:31.431Z,57.44
2022-09-05T17:32:04.454Z,58.95
2022-09-05T17:35:17.567Z,58.17
2022-09-05T17:38:40.083Z,57.98
2022-09-05T17:41:36.331Z,57.35
2022-09-05T17:44:18.018Z,57.21
2022-09-05T17:47:06.575Z,56.97
2022-09-05T17:49:45.215Z,56.64
2022-09-05T17:52:22.914Z,56.28
2022-09-05T17:54:55.551Z,56.11
2022-09-05T17:57:49.241Z,56.17
2022-09-05T18:01:04.536Z,56.35
2022-09-05T18:04:17.892Z,56.23
2022-09-05T18:06:59.780Z,57.18
2022-09-05T18:10:11.908Z,58.22
2022-09-05T18:13:12.630Z,59.42
2022-09-05T18:16:13.141Z,60.58
2022-09-05T18:19:28.764Z,60.54
2022-09-05T18:21:51.062Z,61.95
2022-09-05T18:24:33.448Z,63.90
2022-09-05T18:27:43.890Z,64.91
2022-09-05T18:30:12.528Z,67.75
2022-09-05T18:32:45.248Z,69.53
2022-09-05T18:35:37.329Z,69.03
2022-09-05T18:38:51.617Z,69.79
2022-09-05T18:41:23.481Z,68.86
2022-09-05T18:44:13.667Z,72.65
2022-09-05T18:46:51.907Z,71.52
2022-09-05T18:50:22.104Z,70.45
2022-09-05T18:52:23.738Z,73.49
2022-09-05T18:56:09.811Z,75.03
2022-09-05T18:57:51.491Z,71.32
2022-09-05T19:00:35.214Z,71.29
2022-09-05T19:03:19.291Z,73.14
2022-09-05T19:05:54.684Z,72.84
2022-09-05T19:08:28.762Z,74.54
2022-09-05T19:11:26.903Z,74.01
2022-09-05T19:14:02.762Z,74.05
2022-09-05T19:16:47.948Z,74.69
2022-09-05T19:19:24.503Z,74.22
2022-09-05T19:22:05.504Z,75.57
2022-09-05T19:24:45.904Z,76.37
2022-09-05T19:28:13.958Z,76.73
2022-09-05T19:36:48.647Z,77.41
2022-09-05T19:37:05.767Z,78.21
2022-09-05T19:37:12.862Z,77.73
2022-09-05T19:39:23.174Z,78.25
2022-09-05T19:47:28.292Z,77.14
2022-09-05T19:47:42.612Z,76.11
2022-09-05T19:47:56.385Z,75.32
2022-09-05T19:50:20.345Z,74.71
2022-09-05T19:52:52.973Z,74.26
2022-09-05T19:55:24.324Z,74.41
2022-09-05T19:58:19.395Z,73.54
2022-09-05T20:00:50.374Z,74.17
2022-09-05T20:03:35.457Z,75.54
2022-09-05T20:06:30.191Z,75.19
2022-09-05T20:09:17.692Z,75.05
2022-09-05T20:11:50.883Z,75.52
2022-09-05T20:14:24.561Z,77.10
2022-09-05T20:16:57.014Z,78.59
2022-09-05T20:19:31.440Z,78.75
2022-09-05T20:22:24.237Z,78.88
2022-09-05T20:24:56.255Z,76.96
2022-09-05T20:27:28.101Z,76.94
2022-09-05T20:30:00.042Z,76.90
2022-09-05T20:32:39.947Z,75.51
2022-09-05T20:39:05.484Z,74.79
2022-09-05T20:43:17.606Z,74.66
2022-09-05T20:43:22.290Z,76.11
2022-09-05T20:44:17.365Z,79.85
2022-09-05T20:51:46.084Z,79.89
2022-09-05T20:54:08.294Z,83.08
2022-09-05T20:54:16.040Z,84.02
2022-09-05T20:55:39.038Z,86.27
2022-09-05T20:58:11.942Z,87.31
2022-09-05T21:01:11.709Z,87.31
2022-09-05T21:03:38.593Z,87.29
2022-09-05T21:06:22.644Z,87.08
2022-09-05T21:08:53.225Z,85.00
2022-09-05T21:11:33.692Z,83.59
2022-09-05T21:14:04.932Z,83.59
2022-09-05T21:16:37.104Z,85.74
2022-09-05T21:19:05.823Z,86.83
2022-09-05T21:21:36.105Z,88.56
2022-09-05T21:24:17.163Z,89.82
2022-09-05T21:26:49.554Z,90.72
2022-09-05T21:29:27.510Z,91.88
2022-09-05T21:32:05.587Z,93.72
2022-09-05T21:34:45.035Z,94.99
2022-09-05T21:37:16.129Z,95.46
2022-09-05T21:39:58.827Z,96.40
2022-09-05T21:45:08.511Z,96.72
2022-09-05T21:47:44.484Z,97.71
2022-09-05T21:48:10.546Z,96.88
2022-09-05T21:50:45.085Z,96.59
2022-09-05T21:58:14.610Z,95.56
2022-09-05T21:59:28.368Z,95.47
2022-09-05T21:59:29.611Z,94.32
2022-09-05T22:02:00.728Z,92.99
2022-09-05T22:04:29.385Z,93.45
2022-09-05T22:07:03.112Z,92.88
2022-09-05T22:09:31.795Z,92.18
2022-09-05T22:12:00.047Z,91.99
2022-09-05T22:14:35.755Z,91.58
2022-09-05T22:17:05.081Z,90.03
2022-09-05T22:19:37.774Z,89.72
2022-09-05T22:22:16.247Z,91.50
2022-09-05T22:24:50.305Z,92.16
2022-09-05T22:27:20.562Z,92.28
2022-09-05T22:29:51.947Z,92.78
2022-09-05T22:32:33.972Z,91.29
2022-09-05T22:35:27.041Z,88.57
2022-09-05T22:37:59.734Z,86.90
2022-09-05T22:40:30.212Z,85.27
2022-09-05T22:43:00.268Z,85.67
2022-09-05T22:45:32.013Z,86.05
2022-09-05T22:48:00.773Z,85.32
2022-09-05T22:50:29.073Z,85.29
2022-09-05T22:52:57.333Z,85.52
2022-09-05T22:55:25.736Z,85.49
2022-09-05T22:57:54.043Z,85.35
2022-09-05T23:00:22.510Z,84.63
2022-09-05T23:02:58.164Z,83.21
2022-09-05T23:05:26.927Z,82.89
2022-09-05T23:07:59.042Z,81.64
2022-09-05T23:10:28.499Z,80.92
2022-09-05T23:12:57.685Z,79.04
2022-09-05T23:15:26.900Z,79.23
2022-09-05T23:17:58.116Z,78.43
2022-09-05T23:20:29.829Z,77.46
2022-09-05T23:22:58.505Z,77.51
2022-09-05T23:25:26.847Z,77.22
2022-09-05T23:27:55.111Z,76.97
2022-09-05T23:30:23.403Z,77.25
2022-09-05T23:32:53.254Z,77.29
2022-09-05T23:35:22.893Z,77.50
2022-09-05T23:37:51.179Z,78.17
2022-09-05T23:40:22.978Z,79.88
2022-09-05T23:42:55.561Z,80.01
2022-09-05T23:45:25.259Z,80.69
2022-09-05T23:47:54.383Z,81.36
2022-09-05T23:50:24.139Z,81.02
2022-09-05T23:52:52.526Z,80.72
2022-09-05T23:55:23.225Z,81.33
2022-09-05T23:57:57.778Z,81.21
